Главная страница
METAR-TAF:

METAR-TAF

Аэропорты :

Griffiss_Air_Force_Base

Rome, Нью-Йорк, США

широта: 43-14N, долгота: 075-24W, высота над уровнем моря: 154 м

Текущие метеонаблюдения

Эта сводка был подготовлена 13 минут назад, в 06:53 UTC
Ветер 4 Узел от восточный
Температура 17°C
Влажность 94%
Давление 1012 hPa
Видимость: 16.1 км
небольшая облачность на высоте 4200 фута
небольшая облачность на высоте 8000 фута

METAR: KRME 190653Z AUTO 08004KT 10SM FEW042 FEW080 17/16 A2987 RMK AO2 SLP112 T01720161 $

Время: 03:06 (07:06 UTC)

Прогноз

Эта сводка был подготовлена 1 час и 26 минут назад, в 05:40 UTC
Прогноз действительный с 19-го 06 UTC до 20-го 06 UTC
Ветер 3 Узел переменных направлений
Видимость: 10 км
Рассеянная облачность на высоте 6000 фута

TAF: KRME 190540Z 1906/2006 VRB03KT P6SM BKN060

Метеонаблюдения и прогнозы для более 4000 аэропортов (сводки METAR и TAF).

Имеющиеся станции представлены на карте желтыми и красными точками.

Чтобы увидеть название станции, наведите на нее мышь.

Затем щелкните, чтобы увидеть метеонаблюдения и метеопрогнозы.

Управление картой: чтобы увеличить масштаб, щелкните зеленые кнопки с черным крестиком; чтобы уменьшить масштаб, щелкните зеленую кнопку с тире; для просмотра соседних карт щелкайте зеленые стрелки.


METAR-TAF: